createdAt,value
2018-06-20T00:00:15.480Z,20.24
2018-06-20T00:01:15.388Z,20.25
2018-06-20T00:02:16.506Z,20.16
2018-06-20T00:03:15.416Z,20.20
2018-06-20T00:04:15.507Z,20.13
2018-06-20T00:05:15.467Z,20.15
2018-06-20T00:06:17.569Z,20.30
2018-06-20T00:07:15.478Z,20.12
2018-06-20T00:08:20.239Z,20.21
2018-06-20T00:09:15.498Z,20.25
2018-06-20T00:10:26.283Z,20.12
2018-06-20T00:11:15.525Z,20.13
2018-06-20T00:12:15.665Z,20.27
2018-06-20T00:13:15.568Z,20.18
2018-06-20T00:14:22.224Z,20.27
2018-06-20T00:15:15.578Z,20.28
2018-06-20T00:16:15.701Z,20.18
2018-06-20T00:17:15.648Z,20.20
2018-06-20T00:18:16.725Z,20.21
2018-06-20T00:19:15.667Z,20.21
2018-06-20T00:20:22.792Z,20.25
2018-06-20T00:21:15.688Z,20.30
2018-06-20T00:22:15.856Z,20.15
2018-06-20T00:23:15.722Z,20.24
2018-06-20T00:24:27.723Z,20.27
2018-06-20T00:25:15.735Z,20.21
2018-06-20T00:26:17.899Z,20.13
2018-06-20T00:27:15.785Z,20.23
2018-06-20T00:28:20.783Z,20.23
2018-06-20T00:29:15.840Z,20.15
2018-06-20T00:30:15.882Z,20.24
2018-06-20T00:31:15.874Z,20.20
2018-06-20T00:32:16.009Z,20.21
2018-06-20T00:33:15.853Z,20.20
2018-06-20T00:34:21.742Z,20.09
2018-06-20T00:35:15.880Z,20.15
2018-06-20T00:36:21.766Z,20.23
2018-06-20T00:37:15.919Z,20.12
2018-06-20T00:38:17.095Z,20.16
2018-06-20T00:39:15.975Z,20.13
2018-06-20T00:40:20.750Z,20.18
2018-06-20T00:41:16.039Z,20.13
2018-06-20T00:42:16.096Z,20.16
2018-06-20T00:43:16.018Z,20.16
2018-06-20T00:44:16.195Z,20.09
2018-06-20T00:45:16.046Z,20.18
2018-06-20T00:46:17.242Z,20.15
2018-06-20T00:47:16.087Z,20.03
2018-06-20T00:48:18.157Z,20.05
2018-06-20T00:49:16.117Z,20.02
2018-06-20T00:50:16.240Z,20.03
2018-06-20T00:51:16.151Z,20.00
2018-06-20T00:52:17.276Z,20.05
2018-06-20T00:53:16.177Z,19.97
2018-06-20T00:54:16.273Z,20.03
2018-06-20T00:55:16.208Z,20.02
2018-06-20T00:56:28.268Z,20.02
2018-06-20T00:57:16.209Z,20.03
2018-06-20T00:58:16.432Z,20.13
2018-06-20T00:59:16.278Z,20.06
2018-06-20T01:00:41.328Z,20.02
2018-06-20T01:01:16.314Z,19.97
2018-06-20T01:02:32.341Z,20.00
2018-06-20T01:03:16.314Z,19.98
2018-06-20T01:04:31.388Z,20.06
2018-06-20T01:05:16.360Z,20.02
2018-06-20T01:06:16.492Z,19.98
2018-06-20T01:07:16.378Z,19.97
2018-06-20T01:08:23.367Z,19.97
2018-06-20T01:09:16.422Z,19.94
2018-06-20T01:10:16.642Z,19.97
2018-06-20T01:11:16.436Z,19.93
2018-06-20T01:12:18.609Z,19.91
2018-06-20T01:13:16.486Z,19.90
2018-06-20T01:14:29.345Z,19.90
2018-06-20T01:15:16.508Z,19.88
2018-06-20T01:16:16.670Z,19.97
2018-06-20T01:17:16.530Z,19.91
2018-06-20T01:18:16.702Z,19.88
2018-06-20T01:19:16.558Z,19.88
2018-06-20T01:20:18.619Z,19.93
2018-06-20T01:21:16.633Z,19.90
2018-06-20T01:22:17.741Z,20.00
2018-06-20T01:23:16.617Z,19.95
2018-06-20T01:24:16.713Z,20.00
2018-06-20T01:25:16.676Z,19.88
2018-06-20T01:26:18.811Z,19.95
2018-06-20T01:27:16.684Z,19.95
2018-06-20T01:28:17.765Z,19.88
2018-06-20T01:29:16.714Z,19.91
2018-06-20T01:30:23.711Z,19.91
2018-06-20T01:31:16.747Z,19.88
2018-06-20T01:32:16.875Z,19.88
2018-06-20T01:33:16.758Z,19.90
2018-06-20T01:34:22.710Z,19.88
2018-06-20T01:35:16.787Z,19.90
2018-06-20T01:36:18.842Z,19.88
2018-06-20T01:37:16.833Z,19.88
2018-06-20T01:38:16.906Z,19.80
2018-06-20T01:39:16.877Z,19.87
2018-06-20T01:40:17.950Z,19.84
2018-06-20T01:41:16.907Z,19.70
2018-06-20T01:42:17.953Z,19.87
2018-06-20T01:43:16.929Z,19.76
2018-06-20T01:44:27.806Z,19.79
2018-06-20T01:45:16.969Z,19.79
2018-06-20T01:46:17.053Z,19.80
2018-06-20T01:47:16.972Z,19.84
2018-06-20T01:48:17.056Z,19.87
2018-06-20T01:49:17.005Z,19.86
2018-06-20T01:50:17.066Z,19.86
2018-06-20T01:51:17.035Z,19.94
2018-06-20T01:52:17.108Z,19.88
2018-06-20T01:53:17.067Z,19.86
2018-06-20T01:54:18.117Z,19.87
2018-06-20T01:55:17.094Z,19.90
2018-06-20T01:56:17.218Z,19.84
2018-06-20T01:57:17.124Z,19.93
2018-06-20T01:58:23.790Z,19.78
2018-06-20T01:59:17.177Z,19.83
2018-06-20T02:00:18.293Z,19.84
2018-06-20T02:01:17.212Z,19.88
2018-06-20T02:02:22.785Z,19.86
2018-06-20T02:03:17.219Z,19.73
2018-06-20T02:04:18.303Z,19.84
2018-06-20T02:05:17.280Z,19.78
2018-06-20T02:06:17.309Z,19.78
2018-06-20T02:07:17.279Z,19.78
2018-06-20T02:08:17.291Z,19.84
2018-06-20T02:09:17.328Z,19.84
2018-06-20T02:10:17.421Z,19.79
2018-06-20T02:11:17.323Z,19.78
2018-06-20T02:12:23.286Z,19.83
2018-06-20T02:13:17.374Z,19.84
2018-06-20T02:14:23.285Z,19.80
2018-06-20T02:15:17.401Z,19.72
2018-06-20T02:16:17.456Z,19.86
2018-06-20T02:17:17.438Z,19.75
2018-06-20T02:18:17.466Z,19.72
2018-06-20T02:19:17.488Z,19.76
2018-06-20T02:20:24.263Z,19.66
2018-06-20T02:21:17.478Z,19.78
2018-06-20T02:22:19.581Z,19.84
2018-06-20T02:23:17.525Z,19.78
2018-06-20T02:24:32.258Z,19.80
2018-06-20T02:25:17.543Z,19.88
2018-06-20T02:26:47.375Z,19.76
2018-06-20T02:27:17.583Z,19.90
2018-06-20T02:28:17.626Z,19.80
2018-06-20T02:29:17.600Z,19.80
2018-06-20T02:30:33.306Z,19.83
2018-06-20T02:31:17.636Z,19.78
2018-06-20T02:32:22.283Z,19.79
2018-06-20T02:33:17.672Z,19.86
2018-06-20T02:34:28.331Z,19.88
2018-06-20T02:35:17.717Z,19.79
2018-06-20T02:36:23.320Z,19.88
2018-06-20T02:37:17.724Z,19.70
2018-06-20T02:38:17.800Z,19.79
2018-06-20T02:39:17.768Z,19.84
2018-06-20T02:40:23.777Z,19.83
2018-06-20T02:41:17.789Z,19.83
2018-06-20T02:42:30.827Z,19.86
2018-06-20T02:43:17.822Z,19.83
2018-06-20T02:44:22.756Z,19.76
2018-06-20T02:45:17.852Z,19.79
2018-06-20T02:46:24.816Z,19.72
2018-06-20T02:47:17.869Z,19.80
2018-06-20T02:48:30.807Z,19.76
2018-06-20T02:49:17.920Z,19.75
2018-06-20T02:50:18.000Z,19.73
2018-06-20T02:51:17.942Z,19.76
2018-06-20T02:52:24.805Z,19.79
2018-06-20T02:53:17.955Z,19.70
2018-06-20T02:54:20.086Z,19.70
2018-06-20T02:55:18.001Z,19.80
2018-06-20T02:56:39.044Z,19.69
2018-06-20T02:57:18.007Z,19.76
2018-06-20T02:58:22.737Z,19.69
2018-06-20T02:59:18.049Z,19.72
2018-06-20T03:00:24.816Z,19.68
2018-06-20T03:01:18.092Z,19.79
2018-06-20T04:06:02.322Z,19.87
2018-06-20T04:06:57.814Z,19.97
2018-06-20T04:08:18.841Z,19.88
2018-06-20T04:08:57.856Z,19.95
2018-06-20T04:10:00.043Z,19.88
2018-06-20T04:10:57.848Z,19.98
2018-06-20T04:12:21.754Z,19.97
2018-06-20T04:12:57.891Z,19.95
2018-06-20T04:14:12.734Z,20.00
2018-06-20T04:14:57.911Z,19.95
2018-06-20T04:16:00.066Z,20.00
2018-06-20T04:16:57.959Z,20.05
2018-06-20T04:18:00.101Z,20.05
2018-06-20T04:18:58.038Z,19.98
2018-06-20T04:20:04.703Z,20.10
2018-06-20T04:20:58.029Z,20.02
2018-06-20T04:22:09.750Z,20.05
2018-06-20T04:22:58.070Z,20.12
2018-06-20T04:24:00.224Z,20.10
2018-06-20T04:24:58.083Z,20.13
2018-06-20T04:26:09.819Z,20.21
2018-06-20T04:26:58.119Z,20.15
2018-06-20T04:27:58.161Z,20.12
2018-06-20T04:29:15.220Z,20.24
2018-06-20T04:29:58.160Z,20.24
2018-06-20T04:30:58.331Z,20.25
2018-06-20T04:31:58.193Z,20.28
2018-06-20T04:32:58.351Z,20.33
2018-06-20T04:33:58.224Z,20.33
2018-06-20T04:34:58.442Z,20.39
2018-06-20T04:35:58.252Z,20.43
2018-06-20T04:36:59.425Z,20.42
2018-06-20T04:37:58.344Z,20.38
2018-06-20T04:38:58.485Z,20.46
2018-06-20T04:39:58.304Z,20.49
2018-06-20T04:40:58.501Z,20.51
2018-06-20T04:41:58.342Z,20.56
2018-06-20T04:42:58.486Z,20.56
2018-06-20T04:43:58.369Z,20.59
2018-06-20T04:44:58.508Z,20.53
2018-06-20T04:45:58.396Z,20.62
2018-06-20T04:46:58.412Z,20.68
2018-06-20T04:47:58.425Z,20.71
2018-06-20T04:48:58.541Z,20.79
2018-06-20T04:49:58.458Z,20.80
2018-06-20T04:50:58.470Z,20.81
2018-06-20T04:51:58.541Z,20.74
2018-06-20T04:52:58.597Z,20.80
2018-06-20T04:53:58.541Z,20.86
2018-06-20T04:54:58.558Z,20.91
2018-06-20T04:55:58.563Z,20.91
2018-06-20T04:56:58.563Z,20.98
2018-06-20T04:57:58.607Z,20.99
2018-06-20T04:58:58.604Z,20.99
2018-06-20T04:59:58.604Z,21.04
2018-06-20T05:00:58.692Z,21.09
2018-06-20T05:01:58.663Z,21.11
2018-06-20T05:02:58.725Z,21.16
2018-06-20T05:03:58.685Z,21.19
2018-06-20T05:04:58.840Z,21.14
2018-06-20T05:05:58.678Z,21.24
2018-06-20T05:06:58.842Z,21.34
2018-06-20T05:07:58.722Z,21.34
2018-06-20T05:08:58.848Z,21.41
2018-06-20T05:09:58.782Z,21.38
2018-06-20T05:10:58.886Z,21.45
2018-06-20T05:11:58.783Z,21.42
2018-06-20T05:12:59.901Z,21.56
2018-06-20T05:13:58.819Z,21.57
2018-06-20T05:14:59.009Z,21.60
2018-06-20T05:15:58.843Z,21.69
2018-06-20T05:16:59.010Z,21.71
2018-06-20T05:17:58.864Z,21.83
2018-06-20T05:18:59.020Z,21.83
2018-06-20T05:19:58.926Z,21.88
2018-06-20T05:20:59.067Z,21.95
2018-06-20T05:21:58.934Z,21.99
2018-06-20T05:22:59.085Z,21.99
2018-06-20T05:23:58.980Z,22.01
2018-06-20T05:24:59.083Z,22.07
2018-06-20T05:25:58.988Z,22.23
2018-06-20T05:26:59.090Z,22.22
2018-06-20T05:27:59.075Z,22.25
2018-06-20T05:28:59.052Z,22.28
2018-06-20T05:29:59.579Z,22.31
2018-06-20T05:30:59.072Z,22.34
2018-06-20T05:31:59.194Z,22.27
2018-06-20T05:32:59.201Z,22.20
2018-06-20T05:33:59.217Z,22.28
2018-06-20T05:34:59.127Z,22.29
2018-06-20T05:35:59.230Z,22.20
2018-06-20T05:36:59.151Z,22.16
2018-06-20T05:37:59.237Z,22.14
2018-06-20T05:38:59.218Z,22.16
2018-06-20T05:39:59.364Z,22.10
2018-06-20T05:40:59.219Z,22.20
2018-06-20T05:41:59.497Z,22.19
2018-06-20T05:42:59.251Z,22.22
2018-06-20T05:44:00.415Z,22.23
2018-06-20T05:44:59.303Z,22.31
2018-06-20T05:45:59.381Z,22.32
2018-06-20T05:46:59.310Z,22.22
2018-06-20T05:48:04.228Z,22.25
2018-06-20T05:48:59.346Z,22.34
2018-06-20T05:49:59.432Z,22.25
2018-06-20T05:50:59.376Z,22.28
2018-06-20T05:52:05.292Z,22.25
2018-06-20T05:52:59.452Z,22.27
2018-06-20T05:54:01.500Z,22.23
2018-06-20T05:54:59.434Z,22.22
2018-06-20T05:55:59.569Z,22.28
2018-06-20T05:56:59.465Z,22.29
2018-06-20T05:57:59.608Z,22.37
2018-06-20T05:58:59.507Z,22.28
2018-06-20T06:00:05.228Z,22.32
2018-06-20T06:00:59.511Z,22.28
2018-06-20T06:02:12.305Z,22.27
2018-06-20T06:02:59.546Z,22.23
2018-06-20T06:04:00.622Z,22.31
2018-06-20T06:04:59.601Z,22.28
2018-06-20T06:06:12.190Z,22.23
2018-06-20T06:06:59.614Z,22.20
2018-06-20T06:08:00.758Z,22.14
2018-06-20T06:08:59.672Z,22.20
2018-06-20T06:10:00.783Z,22.28
2018-06-20T06:10:59.688Z,22.27
2018-06-20T06:11:59.788Z,22.34
2018-06-20T06:12:59.713Z,22.32
2018-06-20T06:14:01.833Z,22.35
2018-06-20T06:14:59.727Z,22.35
2018-06-20T06:15:59.905Z,22.28
2018-06-20T06:16:59.844Z,22.20
2018-06-20T06:18:04.734Z,22.17
2018-06-20T06:18:59.792Z,22.07
2018-06-20T06:19:59.936Z,22.09
2018-06-20T06:20:59.839Z,22.19
2018-06-20T06:21:59.946Z,22.13
2018-06-20T06:22:59.849Z,22.10
2018-06-20T06:23:59.975Z,22.22
2018-06-20T06:24:59.899Z,22.16
2018-06-20T06:26:02.060Z,22.27
2018-06-20T06:26:59.926Z,22.23
2018-06-20T06:28:01.026Z,22.32
2018-06-20T06:28:59.965Z,22.38
2018-06-20T06:30:01.134Z,22.38
2018-06-20T06:30:59.989Z,22.47
2018-06-20T06:32:01.121Z,22.50
2018-06-20T06:33:00.043Z,22.46
2018-06-20T06:34:14.778Z,22.43
2018-06-20T06:35:00.075Z,22.52
2018-06-20T06:36:01.143Z,22.64
2018-06-20T06:37:00.235Z,22.69
2018-06-20T06:38:01.179Z,22.78
2018-06-20T06:39:00.112Z,22.83
2018-06-20T06:40:06.830Z,22.89
2018-06-20T06:41:00.127Z,22.94
2018-06-20T06:42:04.770Z,22.96
2018-06-20T06:43:00.165Z,23.08
2018-06-20T06:44:04.816Z,23.14
2018-06-20T06:45:00.178Z,23.29
2018-06-20T06:46:11.279Z,23.29
2018-06-20T06:47:00.220Z,23.20
2018-06-20T06:48:16.306Z,23.22
2018-06-20T06:49:00.245Z,23.09
2018-06-20T06:50:01.387Z,23.22
2018-06-20T06:51:00.305Z,23.15
2018-06-20T06:52:06.302Z,23.27
2018-06-20T06:53:00.322Z,23.29
2018-06-20T06:54:07.337Z,23.45
2018-06-20T06:55:00.373Z,23.42
2018-06-20T06:56:06.460Z,23.52
2018-06-20T06:57:00.395Z,23.57
2018-06-20T06:58:01.501Z,23.52
2018-06-20T06:59:00.413Z,23.55
2018-06-20T07:00:16.282Z,23.53
2018-06-20T07:01:00.441Z,23.60
2018-06-20T07:02:21.455Z,23.60
2018-06-20T07:03:00.454Z,23.55
2018-06-20T07:04:00.551Z,23.60
2018-06-20T07:05:13.349Z,23.57
2018-06-20T07:06:00.527Z,23.62
2018-06-20T07:07:16.322Z,23.61
2018-06-20T07:08:00.526Z,23.60
2018-06-20T07:09:21.583Z,23.62
2018-06-20T07:10:00.573Z,23.70
2018-06-20T07:11:00.579Z,23.70
2018-06-20T07:12:06.344Z,23.79
2018-06-20T07:13:00.613Z,23.82
2018-06-20T07:14:24.374Z,23.70
2018-06-20T07:15:00.646Z,23.76
2018-06-20T07:16:00.661Z,23.85
2018-06-20T07:17:06.392Z,23.83
2018-06-20T07:18:00.728Z,23.94
2018-06-20T07:19:25.895Z,23.98
2018-06-20T07:20:00.712Z,23.94
2018-06-20T08:07:02.413Z,24.64
2018-06-20T08:07:50.536Z,24.59
2018-06-20T08:09:07.464Z,24.56
2018-06-20T08:09:50.580Z,24.63
2018-06-20T08:10:50.688Z,24.61
2018-06-20T08:11:50.609Z,24.59
2018-06-20T08:12:52.665Z,24.60
2018-06-20T08:13:50.650Z,24.64
2018-06-20T08:14:50.757Z,24.75
2018-06-20T08:15:50.682Z,24.85
2018-06-20T08:17:07.529Z,24.71
2018-06-20T08:17:50.730Z,24.83
2018-06-20T08:45:41.660Z,24.80
2018-06-20T08:46:40.785Z,24.82
2018-06-20T08:47:39.749Z,24.80
2018-06-20T08:48:41.851Z,24.63
2018-06-20T08:49:39.799Z,24.67
2018-06-20T08:50:40.808Z,24.63
2018-06-20T08:51:39.812Z,24.75
2018-06-20T08:52:45.647Z,24.76
2018-06-20T08:53:39.856Z,24.90
2018-06-20T08:54:39.933Z,25.01
2018-06-20T08:55:39.891Z,25.09
2018-06-20T08:56:50.679Z,25.12
2018-06-20T08:57:39.913Z,25.07
2018-06-20T08:58:50.742Z,25.20
2018-06-20T08:59:39.937Z,25.22
2018-06-20T09:00:40.095Z,25.30
2018-06-20T09:01:39.997Z,25.38
2018-06-20T09:02:40.006Z,25.39
2018-06-20T09:03:40.015Z,25.53
2018-06-20T09:04:40.012Z,25.44
2018-06-20T09:05:40.043Z,25.56
2018-06-20T09:06:40.070Z,25.68
2018-06-20T09:07:40.077Z,25.74
2018-06-20T09:08:40.097Z,25.97
2018-06-20T09:09:40.099Z,25.99
2018-06-20T09:10:40.173Z,26.15
2018-06-20T09:11:40.157Z,26.15
2018-06-20T09:12:40.160Z,26.15
2018-06-20T09:13:40.273Z,26.15
2018-06-20T09:15:23.485Z,26.18
2018-06-20T09:16:23.343Z,26.22
2018-06-20T09:18:17.647Z,26.24
2018-06-20T09:19:17.643Z,26.31
2018-06-20T09:20:17.657Z,26.21
2018-06-20T09:21:17.804Z,26.21
2018-06-20T09:22:17.700Z,26.15
2018-06-20T09:23:17.790Z,26.05
2018-06-20T09:24:17.700Z,26.22
2018-06-20T09:25:17.744Z,26.15
2018-06-20T09:26:17.779Z,26.31
2018-06-20T09:27:17.779Z,26.47
2018-06-20T09:28:17.796Z,26.55
2018-06-20T09:29:17.830Z,26.62
2018-06-20T09:30:17.827Z,26.76
2018-06-20T09:31:17.838Z,26.69
2018-06-20T09:32:17.848Z,26.64
2018-06-20T09:33:17.860Z,26.54
2018-06-20T09:34:17.999Z,26.55
2018-06-20T09:35:17.905Z,26.50
2018-06-20T09:36:17.905Z,26.47
2018-06-20T09:37:17.947Z,26.42
2018-06-20T09:38:18.025Z,26.40
2018-06-20T09:39:17.956Z,26.31
2018-06-20T09:40:17.995Z,26.40
2018-06-20T09:41:18.074Z,26.35
2018-06-20T09:42:18.018Z,26.44
2018-06-20T09:43:18.039Z,26.42
2018-06-20T09:44:18.176Z,26.54
2018-06-20T09:45:18.054Z,26.43
2018-06-20T09:46:18.193Z,26.50
2018-06-20T09:47:18.110Z,26.55
2018-06-20T09:48:18.195Z,26.58
2018-06-20T09:49:18.142Z,26.69
2018-06-20T09:50:18.227Z,26.65
2018-06-20T09:51:18.163Z,26.67
2018-06-20T09:52:18.169Z,26.80
2018-06-20T09:53:18.246Z,26.73
2018-06-20T09:54:18.245Z,26.83
2018-06-20T09:55:18.254Z,26.99
2018-06-20T09:56:18.370Z,26.99
2018-06-20T09:57:18.265Z,27.10
2018-06-20T09:58:18.358Z,27.09
2018-06-20T09:59:18.301Z,27.10
2018-06-20T10:00:18.369Z,27.20
2018-06-20T10:01:18.330Z,27.20
2018-06-20T10:02:18.406Z,27.20
2018-06-20T10:03:18.368Z,27.23
2018-06-20T10:04:18.430Z,27.16
2018-06-20T10:05:18.387Z,27.20
2018-06-20T10:06:18.469Z,27.17
2018-06-20T10:07:18.426Z,27.11
2018-06-20T10:08:18.447Z,26.98
2018-06-20T10:09:18.478Z,26.95
2018-06-20T10:10:18.491Z,27.02
2018-06-20T10:11:19.414Z,27.04
2018-06-20T10:12:18.516Z,27.11
2018-06-20T10:13:18.662Z,27.19
2018-06-20T10:14:18.555Z,27.21
2018-06-20T10:15:20.652Z,27.20
2018-06-20T10:16:18.578Z,27.36
2018-06-20T10:17:18.668Z,27.50
2018-06-20T10:18:18.620Z,27.62
2018-06-20T10:19:33.632Z,27.61
2018-06-20T10:20:18.688Z,27.47
2018-06-20T10:21:18.785Z,27.41
2018-06-20T10:22:18.692Z,27.36
2018-06-20T10:23:46.549Z,27.43
2018-06-20T10:24:18.725Z,27.57
2018-06-20T10:25:18.756Z,27.67
2018-06-20T10:26:20.915Z,27.62
2018-06-20T10:27:18.778Z,27.71
2018-06-20T11:35:30.107Z,27.50
2018-06-20T11:36:28.517Z,27.42
2018-06-20T11:37:27.453Z,27.32
2018-06-20T11:38:44.128Z,27.23
2018-06-20T11:39:27.501Z,27.20
2018-06-20T11:40:29.544Z,27.19
2018-06-20T11:41:27.514Z,27.10
2018-06-20T11:42:27.556Z,27.19
2018-06-20T11:43:27.479Z,27.14
2018-06-20T11:44:42.095Z,27.16
2018-06-20T11:45:27.498Z,27.19
2018-06-20T11:46:27.541Z,27.24
2018-06-20T11:47:27.569Z,27.29
2018-06-20T11:48:29.578Z,27.23
2018-06-20T11:49:27.571Z,27.38
2018-06-20T11:50:29.627Z,27.38
2018-06-20T11:51:27.634Z,27.50
2018-06-20T11:52:27.668Z,27.42
2018-06-20T11:53:27.668Z,27.54
2018-06-20T11:54:43.617Z,27.61
2018-06-20T11:55:27.680Z,27.70
2018-06-20T11:56:27.700Z,27.82
2018-06-20T11:57:27.730Z,27.86
2018-06-20T11:58:51.621Z,28.07
2018-06-20T11:59:27.777Z,28.17
2018-06-20T12:00:32.618Z,28.23
2018-06-20T12:01:27.802Z,28.31
2018-06-20T12:02:33.610Z,28.31
2018-06-20T12:03:27.843Z,28.31
2018-06-20T12:04:29.932Z,28.41
2018-06-20T12:05:27.857Z,28.48
2018-06-20T12:06:40.645Z,28.56
2018-06-20T12:07:27.909Z,28.60
2018-06-20T12:08:33.638Z,28.62
2018-06-20T12:09:27.944Z,28.70
2018-06-20T12:10:28.965Z,28.82
2018-06-20T12:11:27.959Z,28.95
2018-06-20T12:12:42.627Z,28.97
2018-06-20T12:13:28.009Z,29.13
2018-06-20T12:14:28.047Z,29.19
2018-06-20T12:15:28.040Z,29.18
2018-06-20T12:16:39.617Z,29.29
2018-06-20T12:17:28.120Z,29.20
2018-06-20T12:18:49.114Z,29.22
2018-06-20T12:19:28.115Z,29.25
2018-06-20T12:20:45.124Z,29.22
2018-06-20T12:21:28.153Z,29.23
2018-06-20T12:22:35.176Z,29.22
2018-06-20T12:23:28.224Z,29.19
2018-06-20T12:24:43.117Z,29.20
2018-06-20T12:25:28.206Z,29.31
2018-06-20T12:26:30.301Z,29.20
2018-06-20T12:27:28.275Z,29.25
2018-06-20T12:28:28.283Z,29.34
2018-06-20T12:29:28.301Z,29.22
2018-06-20T12:30:30.353Z,29.23
2018-06-20T12:31:28.336Z,29.23
2018-06-20T12:32:29.398Z,29.29
2018-06-20T12:33:28.473Z,29.15
2018-06-20T12:34:30.449Z,29.19
2018-06-20T12:35:28.409Z,29.00
2018-06-20T12:36:41.247Z,28.97
2018-06-20T12:37:28.473Z,28.95
2018-06-20T12:38:35.187Z,28.97
2018-06-20T12:39:28.478Z,29.01
2018-06-20T12:40:29.508Z,29.08
2018-06-20T12:41:28.503Z,28.90
2018-06-20T12:42:28.531Z,28.82
2018-06-20T12:43:28.563Z,28.84
2018-06-20T12:44:28.561Z,28.91
2018-06-20T12:45:28.595Z,28.84
2018-06-20T12:46:28.613Z,28.80
2018-06-20T12:47:33.133Z,28.78
2018-06-20T12:48:28.656Z,28.66
2018-06-20T12:49:29.664Z,28.68
2018-06-20T12:50:28.703Z,28.68
2018-06-20T12:51:28.713Z,28.77
2018-06-20T12:52:28.823Z,28.95
2018-06-20T12:53:28.738Z,28.91
2018-06-20T12:54:28.741Z,28.97
2018-06-20T12:55:39.678Z,29.10
2018-06-20T12:56:28.806Z,29.22
2018-06-20T12:57:44.687Z,29.19
2018-06-20T12:58:28.835Z,29.23
2018-06-20T12:59:28.881Z,29.20
2018-06-20T13:00:28.858Z,29.20
2018-06-20T13:01:28.891Z,29.13
2018-06-20T13:02:28.921Z,29.11
2018-06-20T13:03:29.919Z,29.08
2018-06-20T13:04:28.948Z,29.16
2018-06-20T13:05:29.979Z,29.25
2018-06-20T13:06:29.005Z,29.28
2018-06-20T13:07:39.653Z,29.35
2018-06-20T13:08:29.017Z,29.25
2018-06-20T13:09:43.654Z,29.31
2018-06-20T13:10:29.046Z,29.33
2018-06-20T13:11:33.669Z,29.35
2018-06-20T13:12:29.083Z,29.23
2018-06-20T13:13:40.688Z,29.16
2018-06-20T13:14:29.098Z,29.11
2018-06-20T13:15:34.685Z,29.15
2018-06-20T13:16:29.156Z,29.03
2018-06-20T13:17:31.208Z,29.08
2018-06-20T13:18:29.209Z,28.96
2018-06-20T13:19:45.186Z,28.85
2018-06-20T13:20:29.233Z,29.07
2018-06-20T13:21:31.332Z,29.03
2018-06-20T13:22:29.254Z,29.03
2018-06-20T13:23:29.309Z,29.15
2018-06-20T13:24:29.300Z,29.16
2018-06-20T13:25:34.211Z,29.11
2018-06-20T13:26:29.336Z,29.19
2018-06-20T13:27:35.176Z,29.16
2018-06-20T13:28:29.415Z,29.25
2018-06-20T13:29:30.405Z,29.29
2018-06-20T13:30:29.415Z,29.26
2018-06-20T13:31:29.466Z,29.33
2018-06-20T13:32:29.451Z,29.44
2018-06-20T13:33:36.199Z,29.55
2018-06-20T13:34:29.490Z,29.49
2018-06-20T13:35:29.563Z,29.53
2018-06-20T13:36:29.551Z,29.49
2018-06-20T13:37:30.543Z,29.40
2018-06-20T13:38:29.563Z,29.41
2018-06-20T13:39:30.642Z,29.34
2018-06-20T13:40:29.610Z,29.34
2018-06-20T13:41:41.184Z,29.34
2018-06-20T13:42:29.631Z,29.35
2018-06-20T13:43:34.182Z,29.34
2018-06-20T13:44:29.657Z,29.35
2018-06-20T13:45:41.724Z,29.26
2018-06-20T13:46:29.720Z,29.23
2018-06-20T13:47:36.716Z,29.16
2018-06-20T13:48:29.737Z,29.11
2018-06-20T13:49:31.823Z,28.97
2018-06-20T13:50:29.779Z,28.88
2018-06-20T13:51:31.828Z,28.91
2018-06-20T13:52:29.812Z,28.97
2018-06-20T13:53:29.835Z,29.10
2018-06-20T13:54:29.835Z,29.13
2018-06-20T13:55:54.712Z,29.16
2018-06-20T13:56:29.890Z,29.20
2018-06-20T13:57:29.902Z,29.25
2018-06-20T13:58:29.930Z,29.25
2018-06-20T13:59:30.960Z,29.22
2018-06-20T14:00:29.958Z,29.23
2018-06-20T14:01:32.003Z,29.20
2018-06-20T14:02:30.032Z,29.04
2018-06-20T14:03:44.696Z,28.91
2018-06-20T14:04:30.046Z,29.01
2018-06-20T14:05:55.717Z,29.03
2018-06-20T14:06:30.107Z,29.06
2018-06-20T14:07:30.212Z,29.10
2018-06-20T14:08:32.172Z,29.08
2018-06-20T14:09:31.137Z,29.10
2018-06-20T14:10:40.800Z,29.11
2018-06-20T14:11:30.155Z,29.25
2018-06-20T14:12:31.204Z,29.25
2018-06-20T14:13:30.193Z,29.31
2018-06-20T14:14:51.259Z,29.23
2018-06-20T14:15:30.249Z,29.29
2018-06-20T14:16:31.283Z,29.28
2018-06-20T14:17:30.310Z,29.34
2018-06-20T14:18:35.228Z,29.23
2018-06-20T14:19:30.339Z,29.29
2018-06-20T14:20:32.404Z,29.16
2018-06-20T14:21:30.362Z,29.22
2018-06-20T14:22:30.396Z,29.20
2018-06-20T14:23:30.440Z,29.25
2018-06-20T14:24:30.418Z,29.19
2018-06-20T14:25:30.423Z,29.25
2018-06-20T14:26:30.458Z,29.28
2018-06-20T14:27:30.464Z,29.38
2018-06-20T14:28:30.529Z,29.45
2018-06-20T14:29:30.522Z,29.45
2018-06-20T14:30:30.538Z,29.40
2018-06-20T14:31:30.531Z,29.40
2018-06-20T14:32:46.198Z,29.40
2018-06-20T14:33:30.575Z,29.37
2018-06-20T14:34:31.607Z,29.43
2018-06-20T14:35:30.697Z,29.47
2018-06-20T14:36:31.654Z,29.44
2018-06-20T14:37:30.670Z,29.29
2018-06-20T14:38:36.271Z,29.23
2018-06-20T14:39:30.700Z,29.29
2018-06-20T14:40:32.757Z,29.34
2018-06-20T14:41:30.745Z,29.41
2018-06-20T14:42:46.740Z,29.44
2018-06-20T14:43:30.755Z,29.45
2018-06-20T14:44:36.695Z,29.47
2018-06-20T14:45:30.812Z,29.57
2018-06-20T14:46:37.713Z,29.49
2018-06-20T14:47:30.836Z,29.52
2018-06-20T14:48:56.751Z,29.44
2018-06-20T14:49:30.931Z,29.53
2018-06-20T14:50:37.737Z,29.53
2018-06-20T14:51:30.941Z,29.53
2018-06-20T14:52:37.741Z,29.52
2018-06-20T14:53:30.982Z,29.53
2018-06-20T14:54:35.703Z,29.49
2018-06-20T14:55:31.009Z,29.40
2018-06-20T14:56:41.770Z,29.41
2018-06-20T14:57:31.047Z,29.41
2018-06-20T14:58:37.791Z,29.35
2018-06-20T14:59:31.121Z,29.35
2018-06-20T15:00:36.999Z,29.45
2018-06-20T15:01:31.392Z,29.40
2018-06-20T15:02:36.900Z,29.43
2018-06-20T15:03:31.170Z,29.38
2018-06-20T15:04:31.281Z,29.35
2018-06-20T15:05:31.206Z,29.31
2018-06-20T15:06:31.278Z,29.35
2018-06-20T15:07:31.218Z,29.33
2018-06-20T15:08:32.430Z,29.37
2018-06-20T15:09:31.268Z,29.22
2018-06-20T15:10:31.344Z,29.25
2018-06-20T15:11:31.335Z,29.25
2018-06-20T15:12:32.379Z,29.25
2018-06-20T15:13:31.337Z,29.31
2018-06-20T15:14:44.231Z,29.31
2018-06-20T15:15:31.375Z,29.33
2018-06-20T15:16:31.397Z,29.37
2018-06-20T15:17:33.519Z,29.38
2018-06-20T15:18:31.420Z,29.38
2018-06-20T15:19:31.430Z,29.43
2018-06-20T15:20:31.567Z,29.40
2018-06-20T15:21:31.534Z,29.35
2018-06-20T15:22:31.630Z,29.31
2018-06-20T15:23:31.547Z,29.29
2018-06-20T15:24:32.587Z,29.40
2018-06-20T15:25:31.544Z,29.35
2018-06-20T15:26:31.661Z,29.33
2018-06-20T15:27:31.605Z,29.41
2018-06-20T15:28:31.721Z,29.41
2018-06-20T15:29:31.658Z,29.50
2018-06-20T15:30:31.696Z,29.56
2018-06-20T15:31:31.699Z,29.55
2018-06-20T15:32:31.685Z,29.44
2018-06-20T15:33:31.707Z,29.41
2018-06-20T15:34:31.728Z,29.43
2018-06-20T15:35:31.788Z,29.53
2018-06-20T15:36:31.773Z,29.57
2018-06-20T15:37:31.793Z,29.59
2018-06-20T15:38:31.813Z,29.55
2018-06-20T15:39:31.823Z,29.55
2018-06-20T15:40:36.906Z,29.50
2018-06-20T15:41:31.853Z,29.44
2018-06-20T15:42:31.979Z,29.35
2018-06-20T15:43:31.935Z,29.31
2018-06-20T15:44:34.743Z,29.35
2018-06-20T15:45:31.935Z,29.33
2018-06-20T15:46:32.038Z,29.22
2018-06-20T15:47:32.046Z,29.22
2018-06-20T15:48:32.130Z,29.25
2018-06-20T15:49:32.053Z,29.23
2018-06-20T15:50:32.119Z,29.16
2018-06-20T15:51:32.145Z,29.16
2018-06-20T15:52:32.110Z,29.15
2018-06-20T15:53:32.257Z,29.16
2018-06-20T15:54:32.123Z,29.18
2018-06-20T15:55:32.126Z,29.10
2018-06-20T15:56:32.285Z,29.11
2018-06-20T15:57:32.171Z,29.15
2018-06-20T15:58:32.188Z,29.10
2018-06-20T15:59:32.460Z,29.11
2018-06-20T16:00:32.241Z,28.97
2018-06-20T16:01:34.465Z,28.93
2018-06-20T16:02:32.255Z,28.75
2018-06-20T16:03:32.289Z,28.75
2018-06-20T16:04:32.451Z,28.77
2018-06-20T16:05:32.336Z,28.78
2018-06-20T16:06:32.331Z,28.69
2018-06-20T16:07:32.372Z,28.75
2018-06-20T16:08:32.380Z,28.75
2018-06-20T16:09:32.426Z,28.73
2018-06-20T16:10:32.415Z,28.72
2018-06-20T16:11:33.712Z,28.70
2018-06-20T16:12:32.471Z,28.70
2018-06-20T16:13:32.482Z,28.80
2018-06-20T16:14:32.497Z,28.80
2018-06-20T16:15:32.511Z,28.80
2018-06-20T16:16:32.543Z,28.87
2018-06-20T16:17:37.509Z,28.85